Time;durP1;ratioP1;P1;durP2;ratioP2;P2;SDS_P1;SDS_P2;PMS_P1;PMS_P2;Temp;Humidity;BMP_temperature;BMP_pressure;BME280_temperature;BME280_humidity;BME280_pressure;Samples;Min_cycle;Max_cycle;Signal;HPM_P1;HPM_P2
2021/11/23 00:00:27;;;;;;;;;;;;;;;4.41;69.88;100682.31;4982196;28;19918;-85
2021/11/23 00:02:54;;;;;;;;;;;;;;;4.41;69.84;100682.31;4982216;28;19917;-83
2021/11/23 04:21:24;;;;;;;;;;;;;;;2.23;84.11;100707.34;5287079;23;20396;-84
2021/11/23 04:23:49;;;;;;;;;;;;;;;2.61;88.03;100706.66;4955142;28;19926;-84
2021/11/23 04:26:15;;;;;;;;;;;;;;;2.85;91.23;100703.25;4954787;28;19918;-84
2021/11/23 04:28:40;;;;;;;;;;;;;;;2.97;93.47;100702.44;4954349;28;19925;-82
2021/11/23 04:31:05;;;;;;;;;;;;;;;2.99;95.08;100705.06;4954062;28;20361;-84
2021/11/23 04:33:30;;;;;;;;;;;;;;;3.05;96.38;100708.56;4937101;29;19922;-82
2021/11/23 04:35:56;;;;;;;;;;;;;;;3.11;96.45;100719.94;4951876;28;19915;-82
2021/11/23 04:38:21;;;;;;;;;;;;;;;3.08;96.80;100711.19;4937523;28;19930;-83
2021/11/23 04:40:46;;;;;;;;;;;;;;;3.05;96.91;100721.66;4954246;28;19918;-83
2021/11/23 04:43:12;;;;;;;;;;;;;;;3.06;96.67;100718.19;4953917;28;19922;-82
2021/11/23 04:45:37;;;;;;;;;;;;;;;3.03;96.59;100723.41;4954037;28;19981;-83
2021/11/23 04:48:03;;;;;;;;;;;;;;;3.03;95.97;100722.50;4953920;28;19922;-84
2021/11/23 04:50:29;;;;;;;;;;;;;;;3.09;95.05;100718.19;4952824;28;20053;-83
2021/11/23 04:52:54;;;;;;;;;;;;;;;3.04;93.93;100729.50;4953883;28;20014;-85
2021/11/23 04:55:20;;;;;;;;;;;;;;;3.07;92.97;100727.78;4936951;28;20337;-83
2021/11/23 04:57:45;;;;;;;;;;;;;;;3.07;91.58;100735.63;4953907;28;19942;-82
2021/11/23 05:00:12;;;;;;;;;;;;;;;3.04;90.11;100730.38;4953124;28;19929;-84
2021/11/23 05:02:37;;;;;;;;;;;;;;;2.98;89.02;100735.59;4953835;29;19925;-82
2021/11/23 05:05:03;;;;;;;;;;;;;;;3.04;87.78;100732.13;4952465;28;20302;-82
2021/11/23 05:07:28;;;;;;;;;;;;;;;3.02;86.85;100732.13;4953059;28;19934;-84
2021/11/23 05:09:53;;;;;;;;;;;;;;;3.05;86.02;100737.38;4953769;29;19922;-81
2021/11/23 05:12:20;;;;;;;;;;;;;;;2.98;85.25;100732.09;4952900;28;20025;-81
2021/11/23 05:14:45;;;;;;;;;;;;;;;2.98;84.86;100735.59;4953499;28;19961;-82
2021/11/23 05:17:11;;;;;;;;;;;;;;;2.97;84.41;100732.97;4952943;28;20310;-84
2021/11/23 05:19:36;;;;;;;;;;;;;;;2.96;84.16;100734.72;4951976;28;19925;-81
2021/11/23 05:22:03;;;;;;;;;;;;;;;2.99;83.88;100741.72;4953035;28;19926;-82
2021/11/23 05:24:28;;;;;;;;;;;;;;;2.96;83.79;100732.09;4953414;29;19918;-82
2021/11/23 05:26:54;;;;;;;;;;;;;;;2.95;83.25;100734.72;4936358;29;20005;-81
2021/11/23 05:29:19;;;;;;;;;;;;;;;2.98;83.02;100734.72;4953478;28;20017;-82
2021/11/23 05:31:44;;;;;;;;;;;;;;;2.91;82.75;100741.69;4953564;28;20286;-82
2021/11/23 05:34:10;;;;;;;;;;;;;;;2.89;82.52;100740.81;4936261;28;19950;-82
2021/11/23 05:36:35;;;;;;;;;;;;;;;2.89;82.38;100743.44;4935043;29;19928;-82
2021/11/23 05:39:00;;;;;;;;;;;;;;;2.79;82.29;100745.13;4931322;28;20370;-84
2021/11/23 05:41:26;;;;;;;;;;;;;;;2.82;82.18;100745.13;4953397;28;19918;-82
2021/11/23 05:43:51;;;;;;;;;;;;;;;2.81;81.99;100747.75;4936227;29;20450;-82
2021/11/23 05:46:16;;;;;;;;;;;;;;;2.88;81.94;100754.78;4931603;29;19922;-83
2021/11/23 05:48:42;;;;;;;;;;;;;;;2.86;81.77;100760.00;4931982;29;19968;-84
2021/11/23 05:51:07;;;;;;;;;;;;;;;2.87;81.64;100764.38;4934695;29;19923;-83
2021/11/23 05:53:33;;;;;;;;;;;;;;;2.78;81.36;100758.22;4936250;29;19961;-82
2021/11/23 05:55:59;;;;;;;;;;;;;;;2.83;81.33;100757.38;4953260;28;19989;-82
2021/11/23 05:58:24;;;;;;;;;;;;;;;2.80;81.29;100766.97;4953527;28;19930;-82
2021/11/23 06:00:49;;;;;;;;;;;;;;;2.80;80.82;100773.06;4953204;28;20330;-84
2021/11/23 06:03:14;;;;;;;;;;;;;;;2.77;81.02;100773.03;4953255;28;20001;-82
2021/11/23 09:01:45;;;;;;;;;;;;;;;2.16;76.54;100870.31;5323826;23;19927;-82
2021/11/23 09:04:10;;;;;;;;;;;;;;;2.22;76.37;100861.63;4937077;29;20392;-84
2021/11/23 09:06:39;;;;;;;;;;;;;;;2.20;76.43;100865.97;4935892;28;19923;-84
2021/11/23 09:09:06;;;;;;;;;;;;;;;2.17;76.15;100869.44;4935681;29;19919;-83
2021/11/23 09:11:32;;;;;;;;;;;;;;;2.17;75.88;100864.19;4936683;29;19926;-84
2021/11/23 09:13:57;;;;;;;;;;;;;;;2.18;76.15;100871.19;4953894;29;19929;-84
2021/11/23 09:16:22;;;;;;;;;;;;;;;2.20;76.05;100873.81;4934695;29;19969;-82
2021/11/23 09:18:48;;;;;;;;;;;;;;;2.21;75.94;100865.13;4953956;28;20293;-84
2021/11/23 09:21:14;;;;;;;;;;;;;;;2.18;75.88;100872.06;4936359;29;20284;-85
2021/11/23 09:23:40;;;;;;;;;;;;;;;2.16;75.68;100876.41;4953294;28;19931;-84
2021/11/23 09:26:05;;;;;;;;;;;;;;;2.20;75.62;100872.06;4936149;29;20017;-84
2021/11/23 09:28:30;;;;;;;;;;;;;;;2.21;75.53;100872.97;4936302;28;19961;-83
2021/11/23 09:30:55;;;;;;;;;;;;;;;2.21;75.44;100871.22;4935168;29;19918;-84
2021/11/23 09:33:21;;;;;;;;;;;;;;;2.20;75.43;100877.28;4947370;29;20392;-84
2021/11/23 09:35:46;;;;;;;;;;;;;;;2.20;75.25;100879.91;4936030;28;19921;-85
2021/11/23 09:38:12;;;;;;;;;;;;;;;2.19;75.09;100888.66;4953032;28;19930;-83
2021/11/23 09:40:37;;;;;;;;;;;;;;;2.21;75.07;100881.69;4936208;28;19915;-84
2021/11/23 09:43:04;;;;;;;;;;;;;;;2.20;75.08;100885.16;4935695;29;19919;-84
2021/11/23 09:45:29;;;;;;;;;;;;;;;2.21;75.05;100886.03;4934964;28;19928;-82
2021/11/23 09:47:55;;;;;;;;;;;;;;;2.18;74.84;100887.75;4939599;29;19918;-83
2021/11/23 09:50:20;;;;;;;;;;;;;;;2.20;74.71;100885.16;4957101;28;20047;-85
2021/11/23 09:52:46;;;;;;;;;;;;;;;2.21;74.71;100886.03;4939699;28;20285;-83
2021/11/23 09:55:12;;;;;;;;;;;;;;;2.22;74.54;100887.78;4939626;29;19922;-84
2021/11/23 09:57:38;;;;;;;;;;;;;;;2.25;74.29;100891.31;4956752;28;19989;-84
2021/11/23 10:00:05;;;;;;;;;;;;;;;2.26;74.12;100889.56;4938489;29;20036;-83
2021/11/23 10:02:33;;;;;;;;;;;;;;;2.22;74.03;100888.66;4951202;28;19922;-82
2021/11/23 10:05:00;;;;;;;;;;;;;;;2.22;74.05;100882.53;4939584;29;19929;-85
2021/11/23 10:07:36;;;;;;;;;;;;;;;2.24;73.91;100880.84;4950020;28;19922;-83
2021/11/23 10:10:16;;;;;;;;;;;;;;;2.22;73.76;100869.47;4955091;28;19918;-84
2021/11/23 10:12:51;;;;;;;;;;;;;;;2.24;73.71;100875.59;4955857;28;20255;-84
2021/11/23 10:15:18;;;;;;;;;;;;;;;2.24;73.64;100860.78;4953904;29;20278;-83
2021/11/23 10:17:51;;;;;;;;;;;;;;;2.26;73.58;100874.75;4939210;28;19922;-83
2021/11/23 10:20:43;;;;;;;;;;;;;;;2.25;73.42;100865.16;4956426;28;19974;-83
2021/11/23 10:23:17;;;;;;;;;;;;;;;2.26;73.36;100861.66;4910307;29;19922;-83
2021/11/23 10:25:44;;;;;;;;;;;;;;;2.27;73.24;100857.34;4954333;29;19965;-83
2021/11/23 10:28:10;;;;;;;;;;;;;;;2.27;73.27;100855.59;4956291;28;20005;-84
2021/11/23 10:30:40;;;;;;;;;;;;;;;2.27;73.25;100847.72;4954908;28;20370;-83
2021/11/23 10:33:06;;;;;;;;;;;;;;;2.33;73.06;100852.13;4955428;29;20294;-84
2021/11/23 10:35:31;;;;;;;;;;;;;;;2.32;72.98;100853.00;4956130;28;19925;-84
2021/11/23 10:37:56;;;;;;;;;;;;;;;2.30;72.84;100849.50;4956283;28;20001;-82
2021/11/23 10:40:25;;;;;;;;;;;;;;;2.32;72.92;100845.16;4956264;28;19918;-82
2021/11/23 10:42:54;;;;;;;;;;;;;;;2.31;72.81;100846.91;4938328;29;19942;-82
2021/11/23 10:45:20;;;;;;;;;;;;;;;2.32;72.88;100846.03;4954707;28;19972;-83
2021/11/23 10:47:47;;;;;;;;;;;;;;;2.32;72.64;100838.19;4938538;28;19973;-84
2021/11/23 10:50:13;;;;;;;;;;;;;;;2.33;72.36;100837.31;4955832;28;19918;-85
2021/11/23 10:52:41;;;;;;;;;;;;;;;2.31;72.44;100836.44;4955818;28;19923;-84
2021/11/23 10:55:26;;;;;;;;;;;;;;;2.33;72.41;100832.09;4954158;28;19922;-83
2021/11/23 10:57:53;;;;;;;;;;;;;;;2.33;72.18;100826.84;4937029;29;19965;-83
2021/11/23 11:00:19;;;;;;;;;;;;;;;2.34;72.19;100820.75;4937218;29;20248;-83
2021/11/23 11:02:44;;;;;;;;;;;;;;;2.35;71.85;100816.41;4938385;28;20405;-83
2021/11/23 11:05:15;;;;;;;;;;;;;;;2.38;72.01;100823.38;4938429;29;19918;-83
2021/11/23 11:07:40;;;;;;;;;;;;;;;2.40;71.77;100817.31;4955600;28;20505;-85
2021/11/23 11:10:08;;;;;;;;;;;;;;;2.40;71.75;100811.22;4955117;28;20202;-83
2021/11/23 11:12:34;;;;;;;;;;;;;;;2.37;71.85;100809.44;4938156;28;19919;-83
2021/11/23 11:15:00;;;;;;;;;;;;;;;2.40;71.53;100813.84;4955194;28;19981;-82
2021/11/23 11:17:26;;;;;;;;;;;;;;;2.40;71.70;100806.84;4937012;29;19924;-84
2021/11/23 11:19:52;;;;;;;;;;;;;;;2.42;71.66;100801.63;4955421;28;19919;-84
2021/11/23 11:22:22;;;;;;;;;;;;;;;2.39;71.53;100806.84;4955029;28;20018;-82
2021/11/23 11:25:03;;;;;;;;;;;;;;;2.45;71.60;100806.88;4955276;28;19969;-84
2021/11/23 11:27:37;;;;;;;;;;;;;;;2.48;71.90;100804.28;4953180;28;19985;-84
2021/11/23 11:30:20;;;;;;;;;;;;;;;2.47;71.73;100800.81;4937200;29;19921;-83
2021/11/23 11:32:49;;;;;;;;;;;;;;;2.47;71.64;100811.28;4955010;28;19922;-86
2021/11/23 11:35:26;;;;;;;;;;;;;;;2.47;71.45;100806.03;4954836;28;19926;-85
2021/11/23 11:37:52;;;;;;;;;;;;;;;2.45;71.47;100805.13;4952958;28;19926;-85
2021/11/23 11:40:25;;;;;;;;;;;;;;;2.44;71.46;100794.66;4949839;28;20009;-85
2021/11/23 11:42:52;;;;;;;;;;;;;;;2.45;71.44;100797.28;4953217;28;19927;-83
2021/11/23 11:45:18;;;;;;;;;;;;;;;2.52;71.55;100798.19;4953669;29;19929;-84
2021/11/23 11:47:45;;;;;;;;;;;;;;;2.52;71.38;100793.84;4948359;28;19922;-83
2021/11/23 11:50:21;;;;;;;;;;;;;;;2.53;71.29;100790.34;4937594;29;19926;-82
2021/11/23 11:53:00;;;;;;;;;;;;;;;2.56;71.28;100789.50;4952613;28;19922;-82
2021/11/23 11:55:26;;;;;;;;;;;;;;;2.59;71.25;100772.97;4954316;28;19922;-85
2021/11/23 11:57:55;;;;;;;;;;;;;;;2.61;71.24;100781.69;4954707;29;20350;-82
2021/11/23 12:00:33;;;;;;;;;;;;;;;2.60;71.03;100767.75;4950294;28;19915;-85
2021/11/23 12:03:07;;;;;;;;;;;;;;;2.61;71.07;100758.13;4954464;29;19931;-84
2021/11/23 12:06:01;;;;;;;;;;;;;;;2.59;71.03;100760.75;4952027;28;19966;-85
2021/11/23 12:08:30;;;;;;;;;;;;;;;2.59;71.15;100757.25;4948846;28;20370;-84
2021/11/23 12:10:56;;;;;;;;;;;;;;;2.61;71.23;100766.84;4937258;29;19972;-84
2021/11/23 12:13:26;;;;;;;;;;;;;;;2.61;71.22;100761.63;4936934;29;20013;-83
2021/11/23 12:16:03;;;;;;;;;;;;;;;2.59;71.12;100768.59;4935884;28;19962;-85
2021/11/23 12:18:34;;;;;;;;;;;;;;;2.62;71.28;100755.53;4954096;28;20420;-83
2021/11/23 12:21:08;;;;;;;;;;;;;;;2.65;71.37;100762.50;4953855;29;20357;-83
2021/11/23 12:23:38;;;;;;;;;;;;;;;2.63;71.29;100765.13;4952934;28;20291;-85
2021/11/23 12:26:07;;;;;;;;;;;;;;;2.63;71.24;100767.75;4953490;29;19922;-82
2021/11/23 12:28:32;;;;;;;;;;;;;;;2.65;71.22;100763.41;4953124;28;19981;-82
2021/11/23 12:31:04;;;;;;;;;;;;;;;2.67;71.23;100763.41;4931522;29;19930;-84
2021/11/23 12:33:29;;;;;;;;;;;;;;;2.69;71.17;100761.66;4954269;28;19925;-85
2021/11/23 12:35:57;;;;;;;;;;;;;;;2.65;70.94;100762.50;4935945;29;19923;-85
2021/11/23 12:38:25;;;;;;;;;;;;;;;2.68;71.09;100754.66;4936091;29;19972;-84
2021/11/23 12:40:51;;;;;;;;;;;;;;;2.72;71.19;100759.06;4936173;29;19922;-84
2021/11/23 12:43:16;;;;;;;;;;;;;;;2.70;71.16;100748.59;4935985;29;19930;-84
2021/11/23 12:45:45;;;;;;;;;;;;;;;2.72;71.31;100751.22;4952893;28;19919;-84
2021/11/23 12:48:28;;;;;;;;;;;;;;;2.70;71.33;100730.25;4936669;29;19952;-85
2021/11/23 12:50:54;;;;;;;;;;;;;;;2.97;73.50;100733.88;4936154;28;19923;-82
2021/11/23 12:53:19;;;;;;;;;;;;;;;3.23;76.44;100730.44;4936699;29;19926;-82
2021/11/23 12:55:52;;;;;;;;;;;;;;;3.35;78.88;100738.34;4936664;28;19958;-85
2021/11/23 12:58:17;;;;;;;;;;;;;;;3.35;80.96;100737.44;4936385;29;20445;-83
2021/11/23 13:00:43;;;;;;;;;;;;;;;3.38;82.57;100725.25;4934905;28;20025;-85
2021/11/23 13:03:10;;;;;;;;;;;;;;;3.38;84.11;100725.25;4936373;29;20353;-83
2021/11/23 13:05:35;;;;;;;;;;;;;;;3.37;85.48;100728.72;4947357;28;20370;-84
2021/11/23 13:08:06;;;;;;;;;;;;;;;3.34;87.01;100723.47;4935968;29;19930;-86
2021/11/23 13:10:33;;;;;;;;;;;;;;;3.31;88.54;100728.69;4936477;29;19925;-83
2021/11/23 13:13:01;;;;;;;;;;;;;;;3.34;90.09;100723.47;4931344;28;19973;-83
2021/11/23 13:15:28;;;;;;;;;;;;;;;3.41;91.65;100727.84;4935276;29;19923;-84
2021/11/23 13:17:57;;;;;;;;;;;;;;;3.60;93.76;100717.38;4952246;29;20025;-83
2021/11/23 13:20:38;;;;;;;;;;;;;;;3.82;96.29;100718.25;4936891;29;19930;-86
2021/11/23 13:23:26;;;;;;;;;;;;;;;4.00;99.46;100706.88;4940091;28;19933;-83
2021/11/23 13:25:57;;;;;;;;;;;;;;;4.09;100.00;100704.25;4939920;29;19925;-83
2021/11/23 13:28:23;;;;;;;;;;;;;;;4.24;100.00;100702.47;4957513;28;19930;-86
2021/11/23 13:30:55;;;;;;;;;;;;;;;4.34;100.00;100698.94;4955640;28;19930;-85
2021/11/23 13:33:27;;;;;;;;;;;;;;;4.39;100.00;100694.56;4956072;29;20416;-82
2021/11/23 13:35:52;;;;;;;;;;;;;;;4.47;100.00;100690.16;4939943;28;19922;-82
2021/11/23 13:38:26;;;;;;;;;;;;;;;4.52;100.00;100690.16;4957359;28;20393;-82
2021/11/23 13:40:51;;;;;;;;;;;;;;;4.60;100.00;100693.63;4957083;29;19929;-87
2021/11/23 13:43:17;;;;;;;;;;;;;;;4.64;100.00;100691.84;4940078;29;19922;-86
2021/11/23 13:45:56;;;;;;;;;;;;;;;4.66;100.00;100690.06;4955331;29;20433;-85
2021/11/23 13:48:21;;;;;;;;;;;;;;;4.69;100.00;100690.06;4957010;28;20382;-86
2021/11/23 13:50:57;;;;;;;;;;;;;;;4.73;100.00;100691.81;4935521;29;19919;-86
2021/11/23 13:53:22;;;;;;;;;;;;;;;4.78;100.00;100695.28;4955205;29;19926;-84
2021/11/23 13:55:48;;;;;;;;;;;;;;;4.86;100.00;100693.47;4934955;28;19930;-86
2021/11/23 13:58:13;;;;;;;;;;;;;;;4.89;100.00;100690.84;4939821;29;20251;-85
2021/11/23 14:00:38;;;;;;;;;;;;;;;4.92;100.00;100692.59;4949023;28;19928;-85
2021/11/23 14:03:06;;;;;;;;;;;;;;;4.97;100.00;100692.56;4934239;28;20012;-83
2021/11/23 14:05:34;;;;;;;;;;;;;;;4.99;100.00;100681.16;4938449;29;19927;-86
2021/11/23 14:08:00;;;;;;;;;;;;;;;5.03;100.00;100695.19;4938859;29;19973;-85
2021/11/23 14:10:27;;;;;;;;;;;;;;;5.06;100.00;100696.03;4939306;29;19919;-84
2021/11/23 14:12:58;;;;;;;;;;;;;;;5.12;100.00;100695.09;4938632;28;19958;-84
2021/11/23 14:15:24;;;;;;;;;;;;;;;5.13;100.00;100691.59;4953677;29;19927;-86
2021/11/23 14:18:01;;;;;;;;;;;;;;;5.17;100.00;100693.34;4939109;29;19922;-83
2021/11/23 14:20:48;;;;;;;;;;;;;;;5.21;100.00;100689.78;4956545;28;19919;-85
2021/11/23 14:23:15;;;;;;;;;;;;;;;5.23;100.00;100697.66;4956012;28;19923;-85
2021/11/23 14:25:43;;;;;;;;;;;;;;;5.11;100.00;100701.25;4955259;28;19923;-83
2021/11/23 14:28:09;;;;;;;;;;;;;;;4.30;100.00;100698.06;4938729;29;19977;-83
2021/11/23 14:30:36;;;;;;;;;;;;;;;4.09;100.00;100698.13;4933094;29;20022;-84
2021/11/23 14:33:02;;;;;;;;;;;;;;;3.87;100.00;100699.91;4954442;28;20684;-83
2021/11/23 14:35:28;;;;;;;;;;;;;;;3.73;100.00;100699.91;4954976;29;20017;-83
2021/11/23 14:37:54;;;;;;;;;;;;;;;3.68;99.55;100702.53;4938763;28;20386;-83
2021/11/23 14:40:19;;;;;;;;;;;;;;;3.61;96.97;100695.56;4938301;29;19923;-86
2021/11/23 14:42:44;;;;;;;;;;;;;;;3.51;95.32;100701.66;4956032;28;20285;-86
2021/11/23 14:45:10;;;;;;;;;;;;;;;3.44;93.40;100692.91;4954557;28;19919;-86
2021/11/23 14:47:35;;;;;;;;;;;;;;;3.39;92.06;100692.03;4956034;28;19918;-84
2021/11/23 14:50:00;;;;;;;;;;;;;;;3.30;90.97;100690.28;4938363;28;20373;-82
2021/11/23 14:52:26;;;;;;;;;;;;;;;3.38;89.92;100693.81;4938029;29;19926;-83
2021/11/23 14:54:51;;;;;;;;;;;;;;;3.30;89.12;100690.28;4955827;28;19922;-86
2021/11/23 14:57:20;;;;;;;;;;;;;;;3.30;88.32;100695.50;4938633;29;19973;-86
2021/11/23 14:59:45;;;;;;;;;;;;;;;3.19;87.78;100699.84;4954366;28;19969;-86
2021/11/23 15:02:11;;;;;;;;;;;;;;;3.20;87.44;100699.88;4953815;28;19958;-84
2021/11/23 15:04:36;;;;;;;;;;;;;;;3.17;87.17;100699.00;4955022;28;19931;-83
2021/11/23 15:07:01;;;;;;;;;;;;;;;3.11;86.81;100704.22;4938533;28;19918;-84
2021/11/23 15:09:26;;;;;;;;;;;;;;;3.04;86.32;100703.34;4955382;29;19927;-83
2021/11/23 15:11:52;;;;;;;;;;;;;;;3.09;85.56;100706.81;4956157;28;19923;-83
2021/11/23 15:14:17;;;;;;;;;;;;;;;3.02;85.54;100700.72;4933483;29;19933;-83
2021/11/23 15:16:42;;;;;;;;;;;;;;;2.94;85.49;100696.34;4936860;29;20370;-86
2021/11/23 15:19:08;;;;;;;;;;;;;;;2.98;84.92;100698.94;4938373;29;20034;-85
2021/11/23 15:21:36;;;;;;;;;;;;;;;2.91;84.75;100702.41;4955341;28;20397;-87
2021/11/23 15:24:01;;;;;;;;;;;;;;;2.87;84.64;100700.66;4937161;29;20511;-85
2021/11/23 15:26:26;;;;;;;;;;;;;;;2.89;84.35;100698.94;4955447;28;20017;-87
2021/11/23 15:28:52;;;;;;;;;;;;;;;2.87;84.24;100698.94;4955164;28;20382;-83
2021/11/23 15:31:17;;;;;;;;;;;;;;;2.78;83.98;100691.03;4953455;28;20573;-85
2021/11/23 15:33:43;;;;;;;;;;;;;;;2.77;83.76;100694.50;4937495;29;19922;-83
2021/11/23 15:36:08;;;;;;;;;;;;;;;2.69;83.64;100693.63;4933540;28;19918;-83
2021/11/23 15:38:34;;;;;;;;;;;;;;;2.67;83.58;100693.59;4937942;29;19925;-84
2021/11/23 15:41:00;;;;;;;;;;;;;;;2.73;83.23;100698.00;4954965;28;19929;-83
2021/11/23 15:43:26;;;;;;;;;;;;;;;2.63;83.15;100699.72;4952544;28;19922;-83
2021/11/23 15:45:51;;;;;;;;;;;;;;;2.59;83.34;100703.19;4953634;28;19941;-83
2021/11/23 15:48:17;;;;;;;;;;;;;;;2.59;83.06;100705.78;4955025;28;19930;-83
2021/11/23 15:50:42;;;;;;;;;;;;;;;2.58;83.14;100705.78;4937585;29;19966;-83
2021/11/23 15:53:07;;;;;;;;;;;;;;;2.63;83.06;100704.94;4954851;28;20457;-83
2021/11/23 15:55:33;;;;;;;;;;;;;;;2.56;82.76;100700.53;4948869;28;19966;-83
2021/11/23 15:58:00;;;;;;;;;;;;;;;2.50;82.89;100703.13;4937528;28;20366;-84
2021/11/23 16:00:25;;;;;;;;;;;;;;;2.59;82.64;100697.06;4953214;29;19923;-84
2021/11/23 16:02:51;;;;;;;;;;;;;;;2.52;82.48;100693.53;4937342;29;19930;-86
2021/11/23 16:05:16;;;;;;;;;;;;;;;2.49;82.35;100698.75;4937315;29;19918;-86
2021/11/23 16:07:42;;;;;;;;;;;;;;;2.41;82.27;100703.06;4937362;29;20378;-85
2021/11/23 16:10:08;;;;;;;;;;;;;;;2.43;82.32;100703.97;4935933;28;20163;-85
2021/11/23 16:12:33;;;;;;;;;;;;;;;2.49;82.38;100704.88;4953748;28;19981;-85
2021/11/23 16:14:58;;;;;;;;;;;;;;;2.46;82.21;100696.16;4954344;28;19922;-82
2021/11/23 16:17:24;;;;;;;;;;;;;;;2.42;82.16;100699.59;4935384;28;19966;-82
2021/11/23 16:19:49;;;;;;;;;;;;;;;2.41;81.98;100708.31;4937248;29;20374;-82
2021/11/23 16:22:15;;;;;;;;;;;;;;;2.42;82.03;100708.31;4936856;28;19926;-83
2021/11/23 16:24:40;;;;;;;;;;;;;;;2.41;81.97;100705.69;4953617;28;19927;-82
2021/11/23 16:27:05;;;;;;;;;;;;;;;2.45;81.90;100704.84;4947581;28;19945;-82
2021/11/23 16:29:31;;;;;;;;;;;;;;;2.36;81.78;100703.94;4936988;29;20426;-82
2021/11/23 16:31:56;;;;;;;;;;;;;;;2.34;81.69;100707.41;4952734;28;19919;-83
2021/11/23 16:34:21;;;;;;;;;;;;;;;2.34;81.88;100708.28;4936142;29;19926;-82
2021/11/23 16:36:47;;;;;;;;;;;;;;;2.33;81.83;100698.69;4936473;29;19923;-85
2021/11/23 16:39:12;;;;;;;;;;;;;;;2.30;81.84;100703.91;4932349;29;20413;-83
2021/11/23 16:41:38;;;;;;;;;;;;;;;2.35;81.84;100698.69;4952598;28;19990;-83
2021/11/23 16:44:05;;;;;;;;;;;;;;;2.35;81.69;100707.41;4953949;28;19918;-83
2021/11/23 16:46:30;;;;;;;;;;;;;;;2.21;81.74;100708.22;4951995;28;20009;-82
2021/11/23 16:48:55;;;;;;;;;;;;;;;2.22;81.91;100708.22;4948005;28;20234;-83
2021/11/23 16:51:21;;;;;;;;;;;;;;;2.27;81.88;100709.13;4936736;28;19923;-85
2021/11/23 16:53:47;;;;;;;;;;;;;;;2.25;81.76;100710.84;4936747;29;19923;-85
2021/11/23 16:56:13;;;;;;;;;;;;;;;2.26;81.62;100707.34;4936042;29;20360;-83
2021/11/23 16:58:38;;;;;;;;;;;;;;;2.28;81.20;100713.50;4936605;29;19923;-85
2021/11/23 17:01:04;;;;;;;;;;;;;;;2.15;81.30;100714.25;4930596;29;19923;-83
2021/11/23 17:03:30;;;;;;;;;;;;;;;2.20;81.58;100709.94;4949031;29;20377;-82
2021/11/23 17:05:57;;;;;;;;;;;;;;;2.18;81.49;100711.66;4953891;28;19966;-82
2021/11/23 17:08:22;;;;;;;;;;;;;;;2.16;81.67;100705.56;4951798;29;20426;-83
2021/11/23 17:10:47;;;;;;;;;;;;;;;2.13;81.48;100711.63;4954245;28;19969;-82
2021/11/23 17:13:13;;;;;;;;;;;;;;;2.20;81.20;100709.94;4936375;29;19922;-83
2021/11/23 17:15:38;;;;;;;;;;;;;;;2.11;81.15;100712.50;4952723;28;19923;-82
2021/11/23 17:18:03;;;;;;;;;;;;;;;2.20;81.34;100716.91;4953728;28;19926;-84
2021/11/23 17:20:28;;;;;;;;;;;;;;;2.13;81.13;100713.38;4953690;29;20009;-82
2021/11/23 17:22:54;;;;;;;;;;;;;;;2.08;81.17;100713.34;4936640;29;19922;-83
2021/11/23 17:25:19;;;;;;;;;;;;;;;2.12;81.08;100719.47;4953532;28;19918;-82
2021/11/23 17:27:44;;;;;;;;;;;;;;;2.05;81.11;100718.56;4953218;28;19923;-82
2021/11/23 17:30:10;;;;;;;;;;;;;;;2.11;81.05;100718.59;4952061;28;20018;-83
2021/11/23 17:32:36;;;;;;;;;;;;;;;2.06;81.07;100716.81;4953697;29;19928;-83
2021/11/23 17:35:02;;;;;;;;;;;;;;;2.12;81.08;100714.25;4952148;29;19921;-83
2021/11/23 17:37:29;;;;;;;;;;;;;;;2.04;80.77;100715.94;4953448;28;19923;-82
2021/11/23 17:39:54;;;;;;;;;;;;;;;2.04;80.88;100716.81;4952803;28;19965;-83
2021/11/23 17:42:19;;;;;;;;;;;;;;;2.06;80.92;100711.59;4953321;28;19922;-83
2021/11/23 17:44:44;;;;;;;;;;;;;;;1.98;80.87;100709.81;4953311;28;19926;-82
2021/11/23 17:49:45;;;;;;;;;;;;;;;2.00;80.79;100715.91;4952632;28;19926;-83
2021/11/23 17:52:10;;;;;;;;;;;;;;;1.96;80.56;100719.38;4953287;28;19923;-82
2021/11/23 17:54:35;;;;;;;;;;;;;;;1.96;80.59;100719.38;4952787;29;19919;-83
2021/11/23 17:57:02;;;;;;;;;;;;;;;2.00;80.75;100715.91;4953301;29;19919;-83
2021/11/23 17:59:27;;;;;;;;;;;;;;;1.97;80.70;100717.63;4953281;28;20271;-83
2021/11/23 18:01:52;;;;;;;;;;;;;;;1.95;80.65;100719.38;4952024;28;19929;-82
2021/11/23 18:04:17;;;;;;;;;;;;;;;1.92;80.72;100717.59;4953311;29;19938;-83
2021/11/23 18:06:43;;;;;;;;;;;;;;;1.95;80.61;100717.63;4954541;28;19925;-85
2021/11/23 18:09:08;;;;;;;;;;;;;;;1.94;80.53;100710.63;4956786;28;20426;-82
2021/11/23 18:11:35;;;;;;;;;;;;;;;1.97;80.66;100717.63;4956989;28;19924;-84
2021/11/23 18:14:02;;;;;;;;;;;;;;;2.00;80.43;100721.13;4956561;28;19925;-83
2021/11/23 18:16:28;;;;;;;;;;;;;;;1.96;80.47;100723.72;4937498;29;20579;-84
2021/11/23 18:18:53;;;;;;;;;;;;;;;1.93;80.52;100726.31;4956650;28;19954;-84
2021/11/23 18:21:18;;;;;;;;;;;;;;;1.93;80.34;100718.47;4939496;28;20341;-84
2021/11/23 18:23:44;;;;;;;;;;;;;;;1.95;80.27;100714.16;4956468;28;19946;-84
2021/11/23 18:26:09;;;;;;;;;;;;;;;1.95;80.26;100712.41;4956496;28;20005;-83
2021/11/23 18:28:34;;;;;;;;;;;;;;;1.89;80.35;100712.34;4956363;28;20006;-85
2021/11/23 18:31:00;;;;;;;;;;;;;;;2.20;81.10;100717.78;4955421;28;20285;-85
2021/11/23 18:33:25;;;;;;;;;;;;;;;2.08;81.42;100707.25;4956334;28;19919;-83
2021/11/23 18:35:58;;;;;;;;;;;;;;;2.03;80.89;100706.31;4956469;28;20016;-84
2021/11/23 18:38:23;;;;;;;;;;;;;;;2.03;80.67;100715.06;4956184;28;19922;-84
2021/11/23 18:40:50;;;;;;;;;;;;;;;2.00;80.56;100710.69;4939101;29;20473;-84
2021/11/23 18:43:17;;;;;;;;;;;;;;;1.94;80.83;100715.88;4955999;28;19925;-85
2021/11/23 18:45:43;;;;;;;;;;;;;;;1.92;80.66;100717.59;4954905;28;19918;-84
2021/11/23 18:48:08;;;;;;;;;;;;;;;1.90;80.60;100708.00;4956144;28;20298;-85
2021/11/23 18:50:33;;;;;;;;;;;;;;;1.93;80.36;100702.78;4955450;28;19922;-82
2021/11/23 18:52:59;;;;;;;;;;;;;;;1.90;80.44;100708.00;4938808;29;19925;-83
2021/11/23 18:55:25;;;;;;;;;;;;;;;1.92;80.29;100707.16;4955861;28;19977;-84
2021/11/23 18:57:50;;;;;;;;;;;;;;;1.94;80.23;100710.63;4955045;28;19926;-83
2021/11/23 19:00:23;;;;;;;;;;;;;;;1.89;80.10;100714.09;4937240;28;19918;-85
2021/11/23 19:02:49;;;;;;;;;;;;;;;1.89;80.06;100721.94;4955623;29;19922;-82
2021/11/23 19:05:17;;;;;;;;;;;;;;;1.92;79.98;100720.22;4955539;28;19925;-83
2021/11/23 19:07:43;;;;;;;;;;;;;;;1.90;80.03;100713.22;4955165;29;20016;-83
2021/11/23 19:10:09;;;;;;;;;;;;;;;1.88;79.92;100720.19;4955912;28;20399;-84
2021/11/23 19:12:34;;;;;;;;;;;;;;;1.90;79.90;100719.34;4955555;28;19926;-82
2021/11/23 19:15:01;;;;;;;;;;;;;;;1.91;79.91;100712.34;4955489;28;19926;-83
2021/11/23 19:17:26;;;;;;;;;;;;;;;1.89;79.65;100711.47;4954131;28;20263;-83
2021/11/23 19:19:53;;;;;;;;;;;;;;;1.89;79.85;100709.72;4937732;29;19919;-83
2021/11/23 19:22:19;;;;;;;;;;;;;;;1.91;79.88;100712.34;4955169;28;20464;-85
2021/11/23 19:24:48;;;;;;;;;;;;;;;1.87;79.78;100718.41;4955119;28;19927;-82
2021/11/23 19:27:14;;;;;;;;;;;;;;;1.89;79.70;100709.72;4954674;28;19969;-83
2021/11/23 19:29:39;;;;;;;;;;;;;;;1.91;79.69;100715.84;4955173;28;19957;-83
2021/11/23 19:32:05;;;;;;;;;;;;;;;1.88;79.69;100714.94;4954055;28;19926;-84
2021/11/23 19:34:30;;;;;;;;;;;;;;;1.88;79.62;100709.72;4955237;28;20313;-83
2021/11/23 19:36:55;;;;;;;;;;;;;;;1.89;79.44;100712.34;4938172;29;19945;-84
2021/11/23 19:39:21;;;;;;;;;;;;;;;1.90;79.13;100708.00;4954799;29;19923;-83
2021/11/23 19:41:46;;;;;;;;;;;;;;;1.89;79.35;100701.91;4937778;29;19928;-84
2021/11/23 19:44:11;;;;;;;;;;;;;;;1.92;79.31;100707.16;4937804;29;19981;-83
2021/11/23 19:46:37;;;;;;;;;;;;;;;1.92;79.13;100696.69;4936426;28;19930;-83
2021/11/23 19:49:02;;;;;;;;;;;;;;;1.89;79.15;100691.44;4937691;29;19919;-82
2021/11/23 19:51:30;;;;;;;;;;;;;;;1.91;78.98;100691.44;4954812;28;19946;-83
2021/11/23 19:53:57;;;;;;;;;;;;;;;1.92;78.84;100696.69;4952913;28;19934;-83
2021/11/23 19:56:23;;;;;;;;;;;;;;;1.90;78.70;100692.31;4937559;29;19918;-82
2021/11/23 19:58:49;;;;;;;;;;;;;;;1.90;78.59;100693.19;4937401;28;20370;-83